createdAt,value
2023-02-26T00:01:31.959Z,2.42
2023-02-26T00:04:02.528Z,1.90
2023-02-26T00:06:32.825Z,2.33
2023-02-26T00:09:01.113Z,2.33
2023-02-26T00:11:29.461Z,2.20
2023-02-26T00:13:57.555Z,1.92
2023-02-26T00:16:35.956Z,2.00
2023-02-26T00:19:06.806Z,2.15
2023-02-26T00:21:36.304Z,2.30
2023-02-26T00:24:04.459Z,2.22
2023-02-26T00:26:32.818Z,1.92
2023-02-26T00:29:01.256Z,2.20
2023-02-26T00:31:29.279Z,2.12
2023-02-26T00:33:58.698Z,2.15
2023-02-26T00:36:53.259Z,1.80
2023-02-26T00:39:45.555Z,1.98
2023-02-26T00:42:14.327Z,1.80
2023-02-26T00:44:42.476Z,2.62
2023-02-26T00:47:25.416Z,2.15
2023-02-26T00:50:01.820Z,2.12
2023-02-26T00:52:32.838Z,1.62
2023-02-26T00:55:00.642Z,2.08
2023-02-26T00:57:28.322Z,1.70
2023-02-26T00:59:56.040Z,2.00
2023-02-26T01:02:24.077Z,2.00
2023-02-26T01:04:52.114Z,1.70
2023-02-26T01:07:24.973Z,2.40
2023-02-26T01:09:53.046Z,2.05
2023-02-26T01:12:21.481Z,2.28
2023-02-26T01:14:49.520Z,2.10
2023-02-26T01:17:33.105Z,2.20
2023-02-26T01:20:23.583Z,1.80
2023-02-26T01:23:01.542Z,1.87
2023-02-26T01:25:37.838Z,2.03
2023-02-26T01:28:05.712Z,1.70
2023-02-26T01:30:33.762Z,2.00
2023-02-26T01:33:20.615Z,2.03
2023-02-26T01:35:56.660Z,1.80
2023-02-26T01:38:56.350Z,1.90
2023-02-26T01:41:52.018Z,2.10
2023-02-26T01:44:57.233Z,1.60
2023-02-26T01:47:37.266Z,1.80
2023-02-26T01:50:31.067Z,2.10
2023-02-26T01:53:25.097Z,1.83
2023-02-26T01:55:58.717Z,1.90
2023-02-26T01:58:29.573Z,2.00
2023-02-26T02:00:57.340Z,1.90
2023-02-26T02:03:27.582Z,2.10
2023-02-26T02:06:04.724Z,2.10
2023-02-26T02:08:36.803Z,2.28
2023-02-26T02:11:08.061Z,1.92
2023-02-26T02:13:48.052Z,1.83
2023-02-26T02:16:32.966Z,2.00
2023-02-26T02:19:09.035Z,2.12
2023-02-26T02:21:51.497Z,1.80
2023-02-26T02:24:43.284Z,1.98
2023-02-26T02:27:38.624Z,1.90
2023-02-26T02:30:44.294Z,1.70
2023-02-26T02:33:19.015Z,2.42
2023-02-26T02:35:57.163Z,1.85
2023-02-26T02:38:29.395Z,2.00
2023-02-26T02:41:06.457Z,1.62
2023-02-26T02:43:37.864Z,1.50
2023-02-26T02:46:10.021Z,1.30
2023-02-26T02:49:09.967Z,1.60
2023-02-26T02:51:42.806Z,1.40
2023-02-26T02:54:24.018Z,1.80
2023-02-26T02:57:04.577Z,1.87
2023-02-26T03:26:32.349Z,1.80
2023-02-26T03:29:28.900Z,1.87
2023-02-26T03:32:01.854Z,1.95
2023-02-26T03:34:46.994Z,1.33
2023-02-26T03:37:27.863Z,1.50
2023-02-26T03:40:03.345Z,1.40
2023-02-26T03:42:34.218Z,1.30
2023-02-26T03:45:16.190Z,1.40
2023-02-26T03:47:47.242Z,1.65
2023-02-26T03:50:25.816Z,1.35
2023-02-26T03:52:55.214Z,1.20
2023-02-26T03:55:40.272Z,1.58
2023-02-26T03:58:08.274Z,1.55
2023-02-26T04:00:40.847Z,1.80
2023-02-26T04:03:19.844Z,1.48
2023-02-26T04:05:50.705Z,2.08
2023-02-26T04:08:18.594Z,1.55
2023-02-26T04:11:01.590Z,1.83
2023-02-26T04:13:29.486Z,1.52
2023-02-26T04:15:57.143Z,1.73
2023-02-26T04:18:24.966Z,1.67
2023-02-26T04:20:52.638Z,1.62
2023-02-26T04:23:20.602Z,1.83
2023-02-26T04:25:48.438Z,1.70
2023-02-26T04:28:16.436Z,1.95
2023-02-26T04:30:44.136Z,1.75
2023-02-26T04:33:11.853Z,1.90
2023-02-26T04:35:40.086Z,1.80
2023-02-26T04:38:07.741Z,1.45
2023-02-26T04:40:35.372Z,1.65
2023-02-26T04:43:03.017Z,1.35
2023-02-26T04:45:30.732Z,1.30
2023-02-26T04:47:58.357Z,1.70
2023-02-26T04:50:26.078Z,1.23
2023-02-26T04:52:53.886Z,1.37
2023-02-26T04:55:21.709Z,1.35
2023-02-26T04:57:49.363Z,1.30
2023-02-26T05:00:18.631Z,1.60
2023-02-26T05:02:46.285Z,1.40
2023-02-26T05:05:14.160Z,1.62
2023-02-26T05:07:41.815Z,2.00
2023-02-26T05:10:10.288Z,1.87
2023-02-26T05:12:37.954Z,1.60
2023-02-26T05:15:07.323Z,2.10
2023-02-26T05:17:34.948Z,2.12
2023-02-26T05:20:02.559Z,1.80
2023-02-26T05:22:30.407Z,1.90
2023-02-26T05:24:58.087Z,1.77
2023-02-26T05:27:25.800Z,1.42
2023-02-26T05:29:53.519Z,1.25
2023-02-26T05:32:21.202Z,1.35
2023-02-26T05:34:48.858Z,1.60
2023-02-26T05:37:16.567Z,1.35
2023-02-26T05:39:44.261Z,1.37
2023-02-26T05:42:11.955Z,2.25
2023-02-26T05:44:39.625Z,1.60
2023-02-26T05:47:07.332Z,1.50
2023-02-26T05:49:35.156Z,1.70
2023-02-26T05:52:03.007Z,1.90
2023-02-26T05:54:30.937Z,1.58
2023-02-26T05:56:58.857Z,2.92
2023-02-26T05:59:26.828Z,2.22
2023-02-26T06:01:54.648Z,1.95
2023-02-26T06:04:22.364Z,1.87
2023-02-26T06:06:50.014Z,1.98
2023-02-26T06:09:17.929Z,1.67
2023-02-26T06:11:45.701Z,1.62
2023-02-26T06:14:13.496Z,1.60
2023-02-26T06:16:41.279Z,1.80
2023-02-26T06:19:09.029Z,1.37
2023-02-26T06:21:36.710Z,1.30
2023-02-26T06:24:04.552Z,1.52
2023-02-26T06:26:32.269Z,2.05
2023-02-26T06:28:59.974Z,1.52
2023-02-26T06:31:28.210Z,1.37
2023-02-26T06:33:55.957Z,1.80
2023-02-26T06:36:23.964Z,1.60
2023-02-26T06:38:51.874Z,1.48
2023-02-26T06:41:19.809Z,1.65
2023-02-26T06:43:47.452Z,1.15
2023-02-26T06:46:15.390Z,1.50
2023-02-26T06:48:43.110Z,1.65
2023-02-26T06:51:11.050Z,0.98
2023-02-26T06:53:39.604Z,1.42
2023-02-26T06:56:07.524Z,1.58
2023-02-26T06:58:35.750Z,1.15
2023-02-26T07:01:05.954Z,1.02
2023-02-26T07:03:33.704Z,1.50
2023-02-26T07:06:23.587Z,1.50
2023-02-26T07:08:49.093Z,1.30
2023-02-26T07:11:16.931Z,1.48
2023-02-26T07:13:44.663Z,1.40
2023-02-26T07:16:12.762Z,1.20
2023-02-26T07:18:40.720Z,1.52
2023-02-26T07:21:08.782Z,1.95
2023-02-26T07:23:36.608Z,1.65
2023-02-26T07:26:04.420Z,1.70
2023-02-26T07:28:32.165Z,1.80
2023-02-26T07:31:00.223Z,1.62
2023-02-26T07:33:29.612Z,2.10
2023-02-26T07:35:57.634Z,1.35
2023-02-26T07:38:25.364Z,1.60
2023-02-26T07:40:56.401Z,1.90
2023-02-26T07:43:25.327Z,1.50
2023-02-26T07:45:54.663Z,1.60
2023-02-26T07:48:22.634Z,1.50
2023-02-26T07:50:53.438Z,1.70
2023-02-26T07:53:21.757Z,1.40
2023-02-26T07:55:49.870Z,1.50
2023-02-26T07:58:18.798Z,1.70
2023-02-26T08:00:47.313Z,1.33
2023-02-26T08:03:16.506Z,1.80
2023-02-26T08:05:44.211Z,1.58
2023-02-26T08:08:11.970Z,1.42
2023-02-26T08:10:42.022Z,2.30
2023-02-26T08:13:09.982Z,2.17
2023-02-26T08:15:37.784Z,1.55
2023-02-26T08:18:05.701Z,1.27
2023-02-26T08:20:33.397Z,1.45
2023-02-26T08:23:01.034Z,1.25
2023-02-26T08:25:28.798Z,1.20
2023-02-26T08:27:58.960Z,1.30
2023-02-26T08:30:26.591Z,1.25
2023-02-26T08:32:54.325Z,1.60
2023-02-26T08:35:22.058Z,1.77
2023-02-26T08:37:49.782Z,1.70
2023-02-26T08:40:17.754Z,1.45
2023-02-26T08:42:45.598Z,1.48
2023-02-26T08:45:13.568Z,1.62
2023-02-26T08:47:56.122Z,1.20
2023-02-26T08:50:25.953Z,1.37
2023-02-26T08:52:54.180Z,1.42
2023-02-26T08:55:22.956Z,1.35
2023-02-26T08:57:50.710Z,1.23
2023-02-26T09:00:19.660Z,1.25
2023-02-26T09:02:47.785Z,1.27
2023-02-26T09:05:16.385Z,1.60
2023-02-26T09:07:44.916Z,1.30
2023-02-26T09:10:13.740Z,1.25
2023-02-26T09:12:41.969Z,1.20
2023-02-26T09:15:11.483Z,1.20
2023-02-26T09:17:39.535Z,1.10
2023-02-26T09:20:08.316Z,1.02
2023-02-26T09:22:36.703Z,1.33
2023-02-26T09:25:05.427Z,1.10
2023-02-26T09:27:33.534Z,1.12
2023-02-26T09:30:01.328Z,1.02
2023-02-26T09:32:29.123Z,1.20
2023-02-26T09:34:56.961Z,1.70
2023-02-26T09:37:24.647Z,1.55
2023-02-26T09:39:54.812Z,1.10
2023-02-26T09:42:45.972Z,1.40
2023-02-26T09:45:31.454Z,1.52
2023-02-26T09:48:02.451Z,1.33
2023-02-26T09:50:43.672Z,1.50
2023-02-26T09:53:32.669Z,1.90
2023-02-26T09:56:05.830Z,1.80
2023-02-26T09:58:40.051Z,1.45
2023-02-26T10:01:35.598Z,1.30
2023-02-26T10:04:22.655Z,1.48
2023-02-26T10:07:11.952Z,1.10
2023-02-26T10:10:10.106Z,1.70
2023-02-26T10:12:41.691Z,1.37
2023-02-26T10:15:23.896Z,1.30
2023-02-26T10:18:13.202Z,1.80
2023-02-26T10:20:53.050Z,1.40
2023-02-26T10:23:35.034Z,1.25
2023-02-26T10:26:20.535Z,1.37
2023-02-26T10:29:13.123Z,1.40
2023-02-26T10:32:19.064Z,1.58
2023-02-26T10:34:58.196Z,1.70
2023-02-26T10:37:44.595Z,1.30
2023-02-26T10:40:36.504Z,1.33
2023-02-26T10:43:13.295Z,1.30
2023-02-26T10:45:47.128Z,1.10
2023-02-26T10:48:43.761Z,1.50
2023-02-26T10:51:21.634Z,1.30
2023-02-26T10:53:56.524Z,1.20
2023-02-26T10:56:42.441Z,1.20
2023-02-26T10:59:10.468Z,1.00
2023-02-26T11:01:38.453Z,1.42
2023-02-26T11:04:19.517Z,1.10
2023-02-26T11:06:56.617Z,1.37
2023-02-26T11:09:32.772Z,0.98
2023-02-26T11:12:15.514Z,1.12
2023-02-26T11:14:48.661Z,1.30
2023-02-26T11:17:23.558Z,1.50
2023-02-26T11:19:59.171Z,1.40
2023-02-26T11:22:30.557Z,1.30
2023-02-26T11:24:58.977Z,1.37
2023-02-26T11:27:32.304Z,1.30
2023-02-26T11:30:07.648Z,1.45
2023-02-26T11:32:38.438Z,1.55
2023-02-26T11:35:09.795Z,1.33
2023-02-26T11:37:41.766Z,1.20
2023-02-26T11:40:19.637Z,1.17
2023-02-26T11:43:00.329Z,1.20
2023-02-26T11:45:28.312Z,1.37
2023-02-26T11:48:06.359Z,1.40
2023-02-26T11:50:44.705Z,1.33
2023-02-26T11:53:24.887Z,1.10
2023-02-26T11:56:02.458Z,1.40
2023-02-26T11:58:37.036Z,1.20
2023-02-26T12:01:07.669Z,1.48
2023-02-26T12:03:42.021Z,1.27
2023-02-26T12:06:19.521Z,1.02
2023-02-26T12:08:47.326Z,1.10
2023-02-26T12:11:27.507Z,1.10
2023-02-26T12:14:13.423Z,1.20
2023-02-26T12:17:21.184Z,1.40
2023-02-26T12:19:52.216Z,1.30
2023-02-26T12:22:31.699Z,1.05
2023-02-26T12:25:11.261Z,1.08
2023-02-26T12:27:56.866Z,1.42
2023-02-26T12:30:55.615Z,1.05
2023-02-26T12:33:39.082Z,1.55
2023-02-26T12:36:22.887Z,1.20
2023-02-26T12:39:00.050Z,1.20
2023-02-26T12:41:36.875Z,1.20
2023-02-26T12:44:22.113Z,1.48
2023-02-26T12:47:12.898Z,1.10
2023-02-26T12:50:08.351Z,1.20
2023-02-26T12:53:15.590Z,1.30
2023-02-26T12:56:07.964Z,1.20
2023-02-26T12:59:10.022Z,1.33
2023-02-26T13:01:37.725Z,1.52
2023-02-26T13:04:14.595Z,1.20
2023-02-26T13:06:48.286Z,1.30
2023-02-26T13:09:45.188Z,1.40
2023-02-26T13:12:24.962Z,1.87
2023-02-26T13:15:01.882Z,1.65
2023-02-26T13:17:49.970Z,1.50
2023-02-26T13:20:27.207Z,1.77
2023-02-26T13:23:02.983Z,1.67
2023-02-26T13:25:50.040Z,1.83
2023-02-26T13:28:42.373Z,2.33
2023-02-26T13:31:27.559Z,1.90
2023-02-26T13:33:58.078Z,2.53
2023-02-26T13:36:28.835Z,1.85
2023-02-26T13:39:22.772Z,1.98
2023-02-26T13:42:05.508Z,1.92
2023-02-26T13:45:09.780Z,1.77
2023-02-26T13:47:59.690Z,1.70
2023-02-26T13:50:45.514Z,2.05
2023-02-26T13:53:25.597Z,1.33
2023-02-26T13:55:55.014Z,1.52
2023-02-26T13:58:25.916Z,1.52
2023-02-26T14:01:27.890Z,1.62
2023-02-26T14:04:26.150Z,1.42
2023-02-26T14:06:55.561Z,1.83
2023-02-26T14:09:23.308Z,1.60
2023-02-26T14:11:58.638Z,1.30
2023-02-26T14:14:36.638Z,1.40
2023-02-26T14:17:04.247Z,1.30
2023-02-26T14:19:44.860Z,1.50
2023-02-26T14:22:35.978Z,1.55
2023-02-26T14:25:20.186Z,1.48
2023-02-26T14:27:49.628Z,1.58
2023-02-26T14:30:28.355Z,1.60
2023-02-26T14:33:11.317Z,1.48
2023-02-26T14:35:46.223Z,1.58
2023-02-26T14:38:22.054Z,1.60
2023-02-26T14:41:26.172Z,1.37
2023-02-26T14:44:08.830Z,1.80
2023-02-26T14:46:37.266Z,1.52
2023-02-26T14:49:06.765Z,1.75
2023-02-26T14:52:06.108Z,1.40
2023-02-26T14:54:58.126Z,1.55
2023-02-26T14:57:46.845Z,1.50
2023-02-26T15:00:38.585Z,1.48
2023-02-26T15:03:18.329Z,1.80
2023-02-26T15:05:52.801Z,1.50
2023-02-26T15:08:36.570Z,1.30
2023-02-26T15:11:36.144Z,1.58
2023-02-26T15:14:44.729Z,1.67
2023-02-26T15:17:34.954Z,1.70
2023-02-26T15:20:11.202Z,1.50
2023-02-26T15:22:41.694Z,2.00
2023-02-26T15:25:33.004Z,1.85
2023-02-26T15:28:02.293Z,2.05
2023-02-26T15:30:33.177Z,1.73
2023-02-26T15:33:04.802Z,1.90
2023-02-26T15:35:36.033Z,1.58
2023-02-26T15:38:05.340Z,1.60
2023-02-26T15:40:36.378Z,1.48
2023-02-26T15:43:06.267Z,1.12
2023-02-26T15:45:38.399Z,1.50
2023-02-26T15:48:10.456Z,1.40
2023-02-26T15:50:43.053Z,1.55
2023-02-26T15:53:18.889Z,1.60
2023-02-26T15:55:58.104Z,1.80
2023-02-26T15:58:54.613Z,1.35
2023-02-26T16:01:24.798Z,1.75
2023-02-26T16:03:57.335Z,1.50
2023-02-26T16:06:29.516Z,1.55
2023-02-26T16:08:57.416Z,1.30
2023-02-26T16:11:27.482Z,1.30
2023-02-26T16:13:55.369Z,1.10
2023-02-26T16:16:30.421Z,0.95
2023-02-26T16:18:58.946Z,1.00
2023-02-26T16:21:29.882Z,1.10
2023-02-26T16:23:59.623Z,1.30
2023-02-26T16:26:36.243Z,1.30
2023-02-26T16:29:08.232Z,1.52
2023-02-26T16:31:38.297Z,1.55
2023-02-26T16:34:24.160Z,1.60
2023-02-26T16:36:53.102Z,1.60
2023-02-26T16:39:33.005Z,1.40
2023-02-26T16:42:22.106Z,1.70
2023-02-26T16:45:02.785Z,1.62
2023-02-26T16:47:32.234Z,1.83
2023-02-26T16:49:59.970Z,1.98
2023-02-26T16:52:28.155Z,1.98
2023-02-26T16:55:03.848Z,2.10
2023-02-26T16:57:43.414Z,1.87
2023-02-26T17:00:28.821Z,2.03
2023-02-26T17:03:00.141Z,1.92
2023-02-26T17:05:32.541Z,1.83
2023-02-26T17:08:10.788Z,1.75
2023-02-26T17:10:55.256Z,1.70
2023-02-26T17:13:30.964Z,1.62
2023-02-26T17:16:08.628Z,1.83
2023-02-26T17:18:36.666Z,1.95
2023-02-26T17:21:06.171Z,1.70
2023-02-26T17:23:38.505Z,1.60
2023-02-26T17:26:07.462Z,2.00
2023-02-26T17:28:41.604Z,1.92
2023-02-26T17:31:09.761Z,1.90
2023-02-26T17:33:39.238Z,2.22
2023-02-26T17:36:08.502Z,1.90
2023-02-26T17:38:36.355Z,1.90
2023-02-26T17:41:04.133Z,1.48
2023-02-26T17:43:31.970Z,1.50
2023-02-26T17:45:59.888Z,1.80
2023-02-26T17:48:27.901Z,3.97
2023-02-26T17:50:57.506Z,2.65
2023-02-26T17:53:34.488Z,1.50
2023-02-26T17:56:02.397Z,1.90
2023-02-26T17:58:34.803Z,1.67
2023-02-26T18:01:05.134Z,1.20
2023-02-26T18:03:33.039Z,1.40
2023-02-26T18:06:00.942Z,1.40
2023-02-26T18:08:31.636Z,1.33
2023-02-26T18:11:00.615Z,1.20
2023-02-26T18:13:29.293Z,1.40
2023-02-26T18:15:59.192Z,1.30
2023-02-26T18:18:27.714Z,1.33
2023-02-26T18:20:56.479Z,1.60
2023-02-26T18:23:24.559Z,2.60
2023-02-26T18:25:55.169Z,3.60
2023-02-26T18:28:26.144Z,6.65
2023-02-26T18:30:55.322Z,5.37
2023-02-26T18:33:24.393Z,4.57
2023-02-26T18:35:57.946Z,4.72
2023-02-26T18:38:28.152Z,4.60
2023-02-26T18:40:56.121Z,5.05
2023-02-26T18:43:23.927Z,5.72
2023-02-26T18:45:53.493Z,5.90
2023-02-26T18:48:22.523Z,5.40
2023-02-26T18:50:50.292Z,5.60
2023-02-26T18:53:24.239Z,4.57
2023-02-26T18:55:54.085Z,4.53
2023-02-26T18:58:22.947Z,4.47
2023-02-26T19:00:50.807Z,4.60
2023-02-26T19:03:18.690Z,3.35
2023-02-26T19:05:46.699Z,3.40
2023-02-26T19:08:14.534Z,3.50
2023-02-26T19:10:42.211Z,3.62
2023-02-26T19:13:09.950Z,4.37
2023-02-26T19:15:37.629Z,4.72
2023-02-26T19:18:05.321Z,4.45
2023-02-26T19:20:33.061Z,4.60
2023-02-26T19:23:02.076Z,4.35
2023-02-26T19:25:31.983Z,4.85
2023-02-26T19:27:59.901Z,4.70
2023-02-26T19:30:27.741Z,4.53
2023-02-26T19:32:56.158Z,3.95
2023-02-26T19:35:23.916Z,2.85
2023-02-26T19:37:51.678Z,3.55
2023-02-26T19:40:20.812Z,2.92
2023-02-26T19:42:49.184Z,2.90
2023-02-26T19:45:17.356Z,2.60
2023-02-26T19:47:45.206Z,2.60
2023-02-26T19:50:15.148Z,2.60
2023-02-26T19:52:42.937Z,2.78
2023-02-26T19:55:11.310Z,2.42
2023-02-26T19:57:38.953Z,2.42
2023-02-26T20:00:08.132Z,3.00
2023-02-26T20:02:35.947Z,2.60
2023-02-26T20:05:06.079Z,2.30
2023-02-26T20:07:33.857Z,1.90
2023-02-26T20:10:05.028Z,2.10
2023-02-26T20:12:32.841Z,1.98
2023-02-26T20:15:00.595Z,1.67
2023-02-26T20:17:28.234Z,1.83
2023-02-26T20:19:56.092Z,1.70
2023-02-26T20:22:25.683Z,1.70
2023-02-26T20:24:53.823Z,1.70
2023-02-26T20:27:21.740Z,1.80
2023-02-26T20:29:50.763Z,1.90
2023-02-26T20:32:18.970Z,1.62
2023-02-26T20:34:46.899Z,1.70
2023-02-26T20:37:14.732Z,2.37
2023-02-26T20:39:42.476Z,2.15
2023-02-26T20:42:10.374Z,1.83
2023-02-26T20:44:38.047Z,1.65
2023-02-26T20:47:06.218Z,2.03
2023-02-26T20:49:33.935Z,1.80
2023-02-26T20:52:01.873Z,1.95
2023-02-26T20:54:29.660Z,1.60
2023-02-26T20:56:57.592Z,2.12
2023-02-26T20:59:25.375Z,1.83
2023-02-26T21:01:54.531Z,1.85
2023-02-26T21:04:22.372Z,2.00
2023-02-26T21:06:50.568Z,1.92
2023-02-26T21:09:18.260Z,2.37
2023-02-26T21:11:45.959Z,1.90
2023-02-26T21:14:13.714Z,1.65
2023-02-26T21:16:42.442Z,2.30
2023-02-26T21:19:10.335Z,1.90
2023-02-26T21:21:38.053Z,2.17
2023-02-26T21:24:06.135Z,2.40
2023-02-26T21:26:35.309Z,1.62
2023-02-26T21:29:03.921Z,1.75
2023-02-26T21:31:32.216Z,2.20
2023-02-26T21:34:08.260Z,1.83
2023-02-26T21:36:45.015Z,2.28
2023-02-26T21:39:12.781Z,1.73
2023-02-26T21:41:40.603Z,2.17
2023-02-26T21:44:08.568Z,2.10
2023-02-26T21:46:36.528Z,2.20
2023-02-26T21:49:04.338Z,2.08
2023-02-26T21:51:32.103Z,2.00
2023-02-26T21:54:00.026Z,1.75
2023-02-26T21:56:27.802Z,1.70
2023-02-26T21:58:55.800Z,2.40
2023-02-26T22:01:23.567Z,1.98
2023-02-26T22:03:51.362Z,2.00
2023-02-26T22:06:19.155Z,2.20
2023-02-26T22:08:46.893Z,1.75
2023-02-26T22:11:14.730Z,2.53
2023-02-26T22:13:42.614Z,2.10
2023-02-26T22:16:10.727Z,1.90
2023-02-26T22:18:38.742Z,2.00
2023-02-26T22:21:06.665Z,2.03
2023-02-26T22:23:34.362Z,2.20
2023-02-26T22:26:02.651Z,1.60
2023-02-26T22:28:30.762Z,1.85
2023-02-26T22:30:58.569Z,1.95
2023-02-26T22:33:27.264Z,2.10
2023-02-26T22:35:59.232Z,1.90
2023-02-26T22:38:27.287Z,2.10
2023-02-26T22:40:55.414Z,2.10
2023-02-26T22:43:23.757Z,1.98
2023-02-26T22:45:51.632Z,2.22
2023-02-26T22:48:19.441Z,1.90
2023-02-26T22:50:47.156Z,2.22
2023-02-26T22:53:14.800Z,1.83
2023-02-26T22:55:42.905Z,1.98
2023-02-26T22:58:10.849Z,1.87
2023-02-26T23:00:38.685Z,2.33
2023-02-26T23:03:06.473Z,1.87
2023-02-26T23:05:34.331Z,2.22
2023-02-26T23:08:02.178Z,1.90
2023-02-26T23:10:30.029Z,1.77
2023-02-26T23:13:01.251Z,1.90
2023-02-26T23:15:29.256Z,1.92
2023-02-26T23:17:57.095Z,1.98
2023-02-26T23:20:24.781Z,2.05
2023-02-26T23:22:52.481Z,2.03
2023-02-26T23:25:20.299Z,1.80
2023-02-26T23:27:48.209Z,2.30
2023-02-26T23:30:15.946Z,1.83
2023-02-26T23:32:43.881Z,2.05
2023-02-26T23:35:11.780Z,1.92
2023-02-26T23:37:39.661Z,2.45
2023-02-26T23:40:08.861Z,2.40
2023-02-26T23:42:36.707Z,2.30
2023-02-26T23:45:04.705Z,2.40
2023-02-26T23:47:32.417Z,2.22
2023-02-26T23:50:00.188Z,2.22
2023-02-26T23:52:27.912Z,2.17
2023-02-26T23:54:55.848Z,2.60
2023-02-26T23:57:23.885Z,1.87
2023-02-26T23:59:51.801Z,2.17
